createdAt,value
2017-12-04T00:00:09.745Z,44.00
2017-12-04T00:02:37.188Z,51.37
2017-12-04T00:05:05.403Z,45.50
2017-12-04T00:07:32.843Z,47.80
2017-12-04T00:10:01.056Z,48.47
2017-12-04T00:12:28.506Z,49.20
2017-12-04T00:14:56.707Z,47.43
2017-12-04T00:17:24.175Z,56.00
2017-12-04T00:19:51.612Z,61.80
2017-12-04T00:22:19.822Z,50.03
2017-12-04T00:24:47.272Z,60.70
2017-12-04T00:27:15.534Z,44.90
2017-12-04T00:29:42.927Z,48.60
2017-12-04T00:32:11.127Z,53.03
2017-12-04T00:34:38.576Z,43.77
2017-12-04T00:37:06.783Z,48.07
2017-12-04T00:39:34.228Z,49.03
2017-12-04T00:42:02.436Z,52.80
2017-12-04T00:44:29.880Z,45.07
2017-12-04T00:46:57.322Z,44.27
2017-12-04T00:49:24.773Z,49.20
2017-12-04T00:51:52.217Z,49.67
2017-12-04T00:54:19.663Z,45.83
2017-12-04T00:56:47.871Z,43.90
2017-12-04T00:59:15.323Z,45.00
2017-12-04T01:01:43.531Z,40.93
2017-12-04T01:04:10.980Z,41.23
2017-12-04T01:06:39.182Z,40.23
2017-12-04T01:09:06.632Z,39.40
2017-12-04T01:11:34.839Z,45.73
2017-12-04T01:14:02.288Z,46.50
2017-12-04T01:16:30.496Z,41.50
2017-12-04T01:18:57.976Z,37.37
2017-12-04T01:21:25.412Z,37.27
2017-12-04T01:23:53.616Z,38.33
2017-12-04T01:26:21.063Z,44.40
2017-12-04T01:28:49.272Z,40.20
2017-12-04T01:31:16.719Z,41.07
2017-12-04T01:33:44.924Z,47.10
2017-12-04T01:36:12.380Z,37.70
2017-12-04T01:38:39.821Z,40.77
2017-12-04T01:41:07.267Z,32.93
2017-12-04T01:43:34.712Z,35.50
2017-12-04T01:46:02.164Z,36.07
2017-12-04T01:48:29.608Z,36.63
2017-12-04T01:50:57.812Z,36.03
2017-12-04T01:53:25.251Z,37.73
2017-12-04T01:55:52.699Z,41.20
2017-12-04T01:58:20.139Z,35.73
2017-12-04T02:00:47.592Z,37.03
2017-12-04T02:03:15.031Z,41.07
2017-12-04T02:05:43.246Z,36.30
2017-12-04T02:08:10.675Z,41.77
2017-12-04T02:10:38.120Z,40.13
2017-12-04T02:13:05.571Z,40.67
2017-12-04T02:15:33.008Z,38.47
2017-12-04T02:18:00.446Z,38.77
2017-12-04T02:20:28.664Z,45.93
2017-12-04T02:22:56.097Z,37.77
2017-12-04T02:25:24.304Z,43.47
2017-12-04T02:27:51.752Z,43.30
2017-12-04T02:30:19.196Z,39.73
2017-12-04T02:32:46.649Z,39.00
2017-12-04T02:35:14.083Z,43.40
2017-12-04T02:37:41.532Z,44.50
2017-12-04T02:40:09.740Z,41.90
2017-12-04T02:42:37.191Z,42.97
2017-12-04T02:45:05.400Z,35.17
2017-12-04T02:47:32.871Z,32.03
2017-12-04T02:50:00.318Z,39.20
2017-12-04T02:52:28.537Z,36.50
2017-12-04T02:54:55.975Z,40.63
2017-12-04T02:57:24.188Z,48.70
2017-12-04T02:59:51.632Z,35.97
2017-12-04T03:02:19.072Z,45.87
2017-12-04T03:04:46.528Z,44.03
2017-12-04T03:07:13.976Z,35.73
2017-12-04T03:09:41.416Z,46.73
2017-12-04T03:12:08.872Z,43.13
2017-12-04T03:14:36.315Z,41.50
2017-12-04T03:17:04.536Z,39.27
2017-12-04T03:19:31.975Z,40.57
2017-12-04T03:22:00.196Z,45.10
2017-12-04T03:24:27.648Z,40.27
2017-12-04T03:26:55.083Z,42.67
2017-12-04T03:29:22.528Z,44.97
2017-12-04T03:31:49.968Z,43.40
2017-12-04T03:34:17.416Z,35.17
2017-12-04T03:36:45.620Z,34.23
2017-12-04T03:39:13.072Z,40.83
2017-12-04T03:41:40.511Z,37.07
2017-12-04T03:44:07.959Z,39.53
2017-12-04T03:46:35.407Z,42.27
2017-12-04T03:49:02.857Z,33.17
2017-12-04T03:51:30.310Z,33.17
2017-12-04T03:53:58.515Z,35.07
2017-12-04T03:56:25.959Z,40.10
2017-12-04T03:58:54.177Z,36.80
2017-12-04T04:01:21.619Z,44.30
2017-12-04T04:03:49.831Z,39.87
2017-12-04T04:06:17.271Z,47.27
2017-12-04T04:08:45.492Z,35.87
2017-12-04T04:11:12.928Z,34.27
2017-12-04T04:13:41.144Z,37.33
2017-12-04T04:16:08.580Z,30.60
2017-12-04T04:18:36.795Z,41.40
2017-12-04T04:21:04.240Z,34.43
2017-12-04T04:23:31.695Z,59.87
2017-12-04T04:25:59.904Z,95.70
2017-12-04T04:28:27.340Z,44.20
2017-12-04T04:30:55.560Z,76.33
2017-12-04T04:33:22.999Z,65.93
2017-12-04T04:35:51.217Z,35.37
2017-12-04T04:38:18.656Z,40.87
2017-12-04T04:40:46.868Z,37.67
2017-12-04T04:43:14.311Z,30.80
2017-12-04T04:45:42.528Z,42.20
2017-12-04T04:48:09.968Z,32.17
2017-12-04T04:50:38.185Z,48.83
2017-12-04T04:53:05.628Z,33.67
2017-12-04T04:55:33.852Z,35.60
2017-12-04T04:58:01.299Z,47.40
2017-12-04T05:00:28.740Z,37.53
2017-12-04T05:02:56.955Z,42.90
2017-12-04T05:05:24.404Z,36.93
2017-12-04T05:07:52.608Z,43.87
2017-12-04T05:10:20.060Z,42.87
2017-12-04T05:12:48.272Z,44.30
2017-12-04T05:15:15.720Z,37.97
2017-12-04T05:17:43.164Z,39.77
2017-12-04T05:20:10.615Z,39.83
2017-12-04T05:22:38.064Z,41.40
2017-12-04T05:25:05.512Z,36.57
2017-12-04T05:27:32.951Z,35.90
2017-12-04T05:30:01.196Z,32.67
2017-12-04T05:32:28.640Z,34.93
2017-12-04T05:34:56.088Z,34.80
2017-12-04T05:37:23.540Z,38.57
2017-12-04T05:39:51.747Z,36.10
2017-12-04T05:42:19.200Z,37.87
2017-12-04T05:44:47.415Z,28.07
2017-12-04T05:47:14.900Z,29.60
2017-12-04T05:49:42.340Z,32.50
2017-12-04T05:52:09.788Z,37.90
2017-12-04T05:54:37.995Z,32.17
2017-12-04T05:57:05.448Z,33.10
2017-12-04T05:59:32.912Z,27.67
2017-12-04T06:02:01.124Z,28.20
2017-12-04T06:04:28.568Z,33.27
2017-12-04T06:06:56.781Z,29.37
2017-12-04T06:09:24.224Z,35.00
2017-12-04T06:11:51.672Z,35.33
2017-12-04T06:14:19.121Z,32.33
2017-12-04T06:16:46.568Z,33.90
2017-12-04T06:19:14.011Z,32.87
2017-12-04T06:21:41.468Z,33.03
2017-12-04T06:24:09.675Z,35.20
2017-12-04T06:26:37.170Z,31.47
2017-12-04T06:29:04.596Z,39.37
2017-12-04T06:31:32.063Z,32.00
2017-12-04T06:33:59.500Z,33.90
2017-12-04T06:36:26.936Z,40.10
2017-12-04T06:38:54.392Z,36.23
2017-12-04T06:41:21.832Z,32.80
2017-12-04T06:43:50.091Z,31.20
2017-12-04T06:46:17.540Z,44.20
2017-12-04T06:48:45.023Z,37.10
2017-12-04T06:51:12.456Z,33.80
2017-12-04T06:53:39.904Z,34.17
2017-12-04T06:56:07.355Z,37.47
2017-12-04T06:58:34.800Z,39.13
2017-12-04T07:01:02.248Z,31.20
2017-12-04T07:03:29.701Z,34.63
2017-12-04T07:05:57.140Z,33.50
2017-12-04T07:08:25.351Z,33.13
2017-12-04T07:10:52.809Z,33.10
2017-12-04T07:13:20.252Z,31.33
2017-12-04T07:15:48.461Z,33.93
2017-12-04T07:18:15.900Z,36.17
2017-12-04T07:20:43.340Z,38.40
2017-12-04T07:23:10.781Z,32.40
2017-12-04T07:25:38.211Z,38.07
2017-12-04T07:28:06.425Z,35.63
2017-12-04T07:30:33.863Z,37.37
2017-12-04T07:33:02.099Z,31.20
2017-12-04T07:35:29.536Z,30.47
2017-12-04T07:37:56.976Z,37.37
2017-12-04T07:40:24.420Z,30.30
2017-12-04T07:42:51.861Z,38.67
2017-12-04T07:45:19.307Z,32.27
2017-12-04T07:47:46.744Z,46.83
2017-12-04T07:50:14.185Z,29.60
2017-12-04T07:52:41.621Z,31.87
2017-12-04T07:55:09.836Z,37.30
2017-12-04T07:57:37.275Z,40.00
2017-12-04T08:00:04.720Z,43.03
2017-12-04T08:02:32.933Z,30.83
2017-12-04T08:05:00.385Z,33.87
2017-12-04T08:07:28.594Z,37.83
2017-12-04T08:09:56.040Z,34.83
2017-12-04T08:12:24.245Z,33.40
2017-12-04T08:14:51.680Z,31.03
2017-12-04T08:17:19.896Z,33.07
2017-12-04T08:19:47.343Z,35.43
2017-12-04T08:22:15.552Z,34.57
2017-12-04T08:24:43.001Z,32.63
2017-12-04T08:27:11.210Z,35.40
2017-12-04T08:29:38.657Z,35.23
2017-12-04T08:32:06.869Z,34.10
2017-12-04T08:34:34.308Z,31.53
2017-12-04T08:37:02.515Z,39.57
2017-12-04T08:39:29.988Z,37.23
2017-12-04T08:41:57.427Z,32.77
2017-12-04T08:44:25.641Z,31.23
2017-12-04T08:46:53.084Z,32.00
2017-12-04T08:49:21.302Z,36.77
2017-12-04T08:51:48.744Z,36.90
2017-12-04T08:54:16.949Z,28.33
2017-12-04T08:56:44.392Z,30.83
2017-12-04T08:59:12.604Z,32.10
2017-12-04T09:01:40.055Z,31.97
2017-12-04T09:04:08.255Z,33.60
2017-12-04T09:06:35.703Z,33.70
2017-12-04T09:09:03.917Z,26.70
2017-12-04T09:11:31.368Z,33.10
2017-12-04T09:13:58.810Z,35.43
2017-12-04T09:16:26.248Z,30.77
2017-12-04T09:18:53.688Z,37.53
2017-12-04T09:21:21.956Z,29.00
2017-12-04T09:23:50.162Z,35.57
2017-12-04T09:26:17.612Z,36.30
2017-12-04T09:28:45.820Z,29.40
2017-12-04T09:31:13.311Z,33.53
2017-12-04T09:33:40.736Z,30.10
2017-12-04T09:36:08.192Z,29.17
2017-12-04T09:38:36.400Z,32.23
2017-12-04T09:41:03.843Z,31.27
2017-12-04T09:43:32.052Z,29.53
2017-12-04T09:45:59.490Z,44.40
2017-12-04T09:48:26.932Z,35.47
2017-12-04T09:50:54.373Z,27.77
2017-12-04T09:53:21.829Z,29.13
2017-12-04T09:55:49.268Z,27.57
2017-12-04T09:58:16.712Z,27.30
2017-12-04T10:00:44.152Z,29.10
2017-12-04T10:03:11.604Z,29.53
2017-12-04T10:05:39.044Z,24.57
2017-12-04T10:08:07.260Z,23.40
2017-12-04T10:10:34.704Z,31.10
2017-12-04T10:13:02.924Z,24.83
2017-12-04T10:15:30.364Z,23.43
2017-12-04T10:17:58.590Z,27.30
2017-12-04T10:20:26.020Z,28.80
2017-12-04T10:22:54.236Z,26.60
2017-12-04T10:25:21.681Z,22.90
2017-12-04T10:27:49.135Z,23.83
2017-12-04T10:30:17.332Z,24.60
2017-12-04T10:32:45.548Z,22.90
2017-12-04T10:35:12.989Z,29.20
2017-12-04T10:37:40.436Z,19.47
2017-12-04T10:40:08.636Z,27.30
2017-12-04T10:42:36.856Z,20.27
2017-12-04T10:45:04.322Z,25.87
2017-12-04T10:47:31.756Z,23.70
2017-12-04T10:49:59.962Z,20.90
2017-12-04T10:52:27.396Z,23.80
2017-12-04T10:54:54.839Z,20.57
2017-12-04T10:57:22.312Z,21.00
2017-12-04T10:59:49.752Z,21.43
2017-12-04T11:02:17.197Z,22.67
2017-12-04T11:04:44.656Z,18.57
2017-12-04T11:07:12.865Z,20.70
2017-12-04T11:09:40.316Z,26.43
2017-12-04T11:12:07.755Z,25.50
2017-12-04T11:14:35.214Z,20.53
2017-12-04T11:17:02.649Z,19.93
2017-12-04T11:19:30.106Z,19.43
2017-12-04T11:21:57.544Z,21.63
2017-12-04T11:24:25.761Z,18.30
2017-12-04T11:26:53.196Z,18.60
2017-12-04T11:29:21.410Z,19.20
2017-12-04T11:31:48.848Z,19.20
2017-12-04T11:34:17.064Z,17.50
2017-12-04T11:36:44.504Z,30.23
2017-12-04T11:39:12.720Z,17.73
2017-12-04T11:41:40.220Z,18.57
2017-12-04T11:44:07.672Z,19.20
2017-12-04T11:46:35.115Z,21.93
2017-12-04T11:49:03.316Z,22.63
2017-12-04T11:51:30.764Z,17.87
2017-12-04T11:53:58.965Z,18.80
2017-12-04T11:56:26.412Z,30.90
2017-12-04T11:58:54.624Z,23.63
2017-12-04T12:01:22.068Z,23.80
2017-12-04T12:03:50.283Z,23.50
2017-12-04T12:06:17.715Z,23.90
2017-12-04T12:08:45.925Z,25.70
2017-12-04T12:11:13.368Z,21.00
2017-12-04T12:13:41.580Z,22.70
2017-12-04T12:16:09.029Z,24.03
2017-12-04T12:18:37.240Z,27.90
2017-12-04T12:21:04.684Z,25.60
2017-12-04T12:23:32.897Z,27.80
2017-12-04T12:26:00.335Z,26.30
2017-12-04T12:28:28.553Z,23.87
2017-12-04T12:30:55.984Z,30.23
2017-12-04T12:33:24.192Z,28.93
2017-12-04T12:35:51.639Z,29.50
2017-12-04T12:38:19.852Z,33.07
2017-12-04T12:40:47.296Z,32.20
2017-12-04T12:43:15.512Z,31.80
2017-12-04T12:45:42.956Z,25.83
2017-12-04T12:48:11.164Z,32.10
2017-12-04T12:50:38.629Z,34.13
2017-12-04T12:53:06.068Z,33.27
2017-12-04T12:55:33.503Z,34.00
2017-12-04T12:58:01.005Z,26.87
2017-12-04T13:00:28.445Z,22.33
2017-12-04T13:02:55.888Z,30.90
2017-12-04T13:05:23.327Z,31.33
2017-12-04T13:07:51.543Z,28.40
2017-12-04T13:10:18.987Z,24.33
2017-12-04T13:12:47.196Z,23.20
2017-12-04T13:15:14.641Z,26.70
2017-12-04T13:17:42.852Z,30.23
2017-12-04T13:20:10.288Z,26.80
2017-12-04T13:22:38.517Z,24.03
2017-12-04T13:25:05.939Z,28.07
2017-12-04T13:27:33.397Z,30.30
2017-12-04T13:30:00.824Z,22.70
2017-12-04T13:32:40.016Z,28.90
2017-12-04T13:35:20.179Z,27.87
2017-12-04T13:37:48.392Z,30.83
2017-12-04T13:40:15.827Z,27.90
2017-12-04T13:42:43.268Z,29.50
2017-12-04T13:45:10.708Z,26.97
2017-12-04T13:47:38.156Z,37.27
2017-12-04T13:50:05.600Z,33.57
2017-12-04T13:52:33.036Z,28.30
2017-12-04T13:55:00.483Z,30.10
2017-12-04T13:57:27.920Z,24.97
2017-12-04T13:59:56.136Z,30.83
2017-12-04T14:02:23.573Z,33.10
2017-12-04T14:04:51.785Z,30.03
2017-12-04T14:07:19.228Z,24.47
2017-12-04T14:09:47.436Z,30.27
2017-12-04T14:12:14.874Z,32.13
2017-12-04T14:14:42.316Z,33.33
2017-12-04T14:17:09.761Z,28.70
2017-12-04T14:19:37.205Z,34.20
2017-12-04T14:22:04.636Z,32.77
2017-12-04T14:24:32.084Z,35.67
2017-12-04T14:26:59.511Z,32.17
2017-12-04T14:29:26.967Z,28.77
2017-12-04T14:31:55.176Z,31.97
2017-12-04T14:34:22.624Z,30.50
2017-12-04T14:36:50.076Z,35.47
2017-12-04T14:39:18.284Z,30.77
2017-12-04T14:41:45.731Z,23.47
2017-12-04T14:44:13.176Z,33.83
2017-12-04T14:46:40.616Z,32.27
2017-12-04T14:49:08.080Z,38.00
2017-12-04T14:51:35.576Z,41.30
2017-12-04T14:54:03.008Z,42.03
2017-12-04T14:56:30.452Z,32.60
2017-12-04T14:58:58.664Z,33.13
2017-12-04T15:01:26.108Z,41.87
2017-12-04T15:03:54.309Z,45.20
2017-12-04T15:06:21.764Z,35.20
2017-12-04T15:08:49.964Z,41.50
2017-12-04T15:11:17.422Z,36.70
2017-12-04T15:13:45.617Z,43.27
2017-12-04T15:16:13.064Z,36.53
2017-12-04T15:18:41.270Z,40.37
2017-12-04T15:21:09.476Z,34.03
2017-12-04T15:23:36.908Z,40.37
2017-12-04T15:26:05.116Z,39.57
2017-12-04T15:28:32.559Z,34.80
2017-12-04T15:31:00.767Z,33.23
2017-12-04T15:33:28.226Z,37.50
2017-12-04T15:35:56.436Z,32.20
2017-12-04T15:38:23.872Z,36.70
2017-12-04T15:40:52.084Z,37.60
2017-12-04T15:43:19.517Z,30.57
2017-12-04T15:45:46.965Z,32.23
2017-12-04T15:48:14.402Z,38.10
2017-12-04T15:50:41.868Z,31.73
2017-12-04T15:53:09.796Z,29.60
2017-12-04T15:55:37.263Z,38.50
2017-12-04T15:58:04.697Z,31.93
2017-12-04T16:00:32.136Z,55.40
2017-12-04T16:02:59.576Z,56.13
2017-12-04T16:05:27.848Z,69.93
2017-12-04T16:07:55.283Z,49.63
2017-12-04T16:10:22.720Z,45.67
2017-12-04T16:12:50.168Z,44.70
2017-12-04T16:15:18.371Z,40.47
2017-12-04T16:17:45.817Z,43.77
2017-12-04T16:20:13.251Z,36.33
2017-12-04T16:22:40.696Z,34.03
2017-12-04T16:25:08.140Z,35.33
2017-12-04T16:27:36.345Z,39.73
2017-12-04T16:30:03.784Z,35.93
2017-12-04T16:32:31.996Z,32.10
2017-12-04T16:34:59.432Z,29.47
2017-12-04T16:37:27.648Z,28.97
2017-12-04T16:39:55.092Z,33.53
2017-12-04T16:42:22.532Z,35.70
2017-12-04T16:44:49.981Z,26.30
2017-12-04T16:47:17.431Z,39.60
2017-12-04T16:49:44.868Z,38.37
2017-12-04T16:52:13.081Z,33.03
2017-12-04T16:54:40.519Z,38.27
2017-12-04T16:57:08.724Z,36.13
2017-12-04T16:59:36.172Z,41.50
2017-12-04T17:02:04.391Z,39.63
2017-12-04T17:04:31.831Z,34.80
2017-12-04T17:07:00.040Z,39.77
2017-12-04T18:25:40.704Z,48.30
2017-12-04T18:28:08.140Z,41.30
2017-12-04T18:30:36.349Z,36.50
2017-12-04T18:33:03.789Z,39.43
2017-12-04T18:35:31.996Z,32.47
2017-12-04T18:37:59.432Z,43.17
2017-12-04T18:40:27.640Z,40.33
2017-12-04T18:42:55.072Z,35.47
2017-12-04T18:45:22.528Z,30.13
2017-12-04T18:47:49.964Z,34.83
2017-12-04T18:50:17.412Z,32.07
2017-12-04T18:52:44.848Z,33.73
2017-12-04T18:55:12.312Z,29.53
2017-12-04T18:57:39.748Z,26.70
2017-12-04T19:00:07.188Z,29.33
2017-12-04T19:02:34.628Z,34.20
2017-12-04T19:05:02.068Z,31.70
2017-12-04T19:07:29.512Z,38.70
2017-12-04T19:09:56.944Z,29.77
2017-12-04T19:12:25.156Z,29.90
2017-12-04T19:14:52.591Z,43.23
2017-12-04T19:17:20.823Z,31.87
2017-12-04T19:19:48.255Z,40.33
2017-12-04T19:22:16.472Z,41.87
2017-12-04T19:24:43.912Z,39.23
2017-12-04T19:27:12.113Z,40.23
2017-12-04T19:29:39.556Z,31.90
2017-12-04T19:32:07.760Z,32.63
2017-12-04T19:34:35.208Z,40.53
2017-12-04T19:37:03.408Z,36.77
2017-12-04T19:39:31.612Z,39.30
2017-12-04T19:41:59.063Z,37.33
2017-12-04T19:44:27.276Z,37.13
2017-12-04T19:46:54.712Z,41.90
2017-12-04T19:49:22.916Z,36.43
2017-12-04T19:51:50.364Z,34.97
2017-12-04T19:54:18.571Z,34.20
2017-12-04T19:56:46.050Z,41.10
2017-12-04T19:59:13.483Z,36.17
2017-12-04T20:01:41.688Z,35.43
2017-12-04T20:04:09.179Z,38.47
2017-12-04T20:06:36.604Z,37.23
2017-12-04T20:09:04.836Z,47.60
2017-12-04T20:11:32.276Z,50.63
2017-12-04T20:13:59.717Z,53.50
2017-12-04T20:16:27.198Z,40.10
2017-12-04T20:18:54.660Z,36.37
2017-12-04T20:21:22.868Z,45.33
2017-12-04T20:23:50.350Z,33.63
2017-12-04T20:26:17.784Z,37.40
2017-12-04T20:28:45.981Z,32.10
2017-12-04T20:31:14.196Z,31.13
2017-12-04T20:33:41.627Z,38.13
2017-12-04T20:36:09.851Z,34.10
2017-12-04T20:38:37.280Z,40.90
2017-12-04T20:41:05.517Z,33.07
2017-12-04T20:43:32.952Z,30.80
2017-12-04T20:46:01.213Z,37.37
2017-12-04T20:48:28.656Z,33.00
2017-12-04T20:50:56.087Z,39.93
2017-12-04T20:53:23.540Z,38.13
2017-12-04T20:55:51.740Z,68.30
2017-12-04T20:58:19.193Z,35.97
2017-12-04T21:00:47.406Z,42.00
2017-12-04T21:03:14.840Z,35.93
2017-12-04T21:05:43.040Z,65.20
2017-12-04T21:08:22.368Z,47.50
2017-12-04T21:11:02.484Z,50.10
2017-12-04T21:16:47.047Z,51.03
2017-12-04T21:19:15.268Z,48.30
2017-12-04T21:21:42.710Z,60.60
2017-12-04T21:24:10.147Z,37.43
2017-12-04T21:26:37.594Z,37.33
2017-12-04T21:29:05.801Z,42.43
2017-12-04T21:31:33.240Z,63.00
2017-12-04T21:34:00.684Z,48.93
2017-12-04T21:36:28.124Z,49.37
2017-12-04T21:38:56.335Z,43.17
2017-12-04T21:41:23.769Z,35.70
2017-12-04T21:43:51.985Z,48.83
2017-12-04T21:46:19.424Z,53.27
2017-12-04T21:48:46.859Z,45.93
2017-12-04T21:51:14.297Z,48.90
2017-12-04T21:53:41.747Z,39.37
2017-12-04T21:56:09.943Z,36.70
2017-12-04T21:58:37.391Z,36.10
2017-12-04T22:01:05.592Z,43.77
2017-12-04T22:03:33.091Z,46.03
2017-12-04T22:06:00.527Z,35.33
2017-12-04T22:08:27.960Z,35.87
2017-12-04T22:10:55.404Z,32.83
2017-12-04T22:13:22.845Z,36.07
2017-12-04T22:15:50.293Z,48.97
2017-12-04T22:18:18.537Z,54.00
2017-12-04T22:20:45.984Z,37.33
2017-12-04T22:23:13.415Z,30.03
2017-12-04T22:25:40.865Z,28.37
2017-12-04T22:28:09.068Z,33.07
2017-12-04T22:30:37.279Z,30.97
2017-12-04T22:33:04.712Z,44.10
2017-12-04T22:35:32.928Z,34.50
2017-12-04T22:38:00.367Z,38.50
2017-12-04T22:40:28.579Z,35.43
2017-12-04T22:42:56.015Z,45.43
2017-12-04T22:45:24.229Z,34.40
2017-12-04T22:47:51.668Z,43.90
2017-12-04T22:50:19.116Z,28.73
2017-12-04T22:52:46.555Z,27.07
2017-12-04T22:55:14.007Z,37.90
2017-12-04T22:57:41.439Z,48.90
2017-12-04T23:00:08.883Z,37.90
2017-12-04T23:02:36.316Z,34.67
2017-12-04T23:05:03.783Z,43.80
2017-12-04T23:07:31.215Z,39.20
2017-12-04T23:09:59.423Z,32.73
2017-12-04T23:12:26.875Z,39.13
2017-12-04T23:14:55.079Z,41.73
2017-12-04T23:17:22.527Z,33.17
2017-12-04T23:19:50.727Z,23.80
2017-12-04T23:22:18.180Z,25.17
2017-12-04T23:24:46.383Z,30.73
2017-12-04T23:27:13.836Z,29.03
2017-12-04T23:29:42.036Z,24.20
2017-12-04T23:32:09.489Z,32.23
2017-12-04T23:34:37.687Z,36.83
2017-12-04T23:37:05.900Z,25.93
2017-12-04T23:39:33.335Z,21.03
2017-12-04T23:42:01.552Z,28.13
2017-12-04T23:44:28.992Z,29.47
2017-12-04T23:46:57.204Z,20.00
2017-12-04T23:49:24.654Z,32.93
2017-12-04T23:51:52.876Z,22.40
2017-12-04T23:54:21.637Z,31.97
2017-12-04T23:56:49.843Z,25.93
2017-12-04T23:59:17.296Z,23.93
